createdAt,value
2022-10-14T00:02:04.447Z,3.47
2022-10-14T00:04:57.945Z,3.60
2022-10-14T00:07:51.161Z,3.05
2022-10-14T00:10:43.820Z,3.42
2022-10-14T00:13:38.787Z,3.25
2022-10-14T00:16:34.360Z,3.25
2022-10-14T00:19:28.152Z,3.65
2022-10-14T00:22:21.284Z,3.15
2022-10-14T00:25:15.138Z,3.55
2022-10-14T00:28:07.827Z,2.72
2022-10-14T00:31:03.339Z,19.35
2022-10-14T00:33:57.497Z,2.22
2022-10-14T00:36:50.840Z,2.78
2022-10-14T00:39:43.933Z,3.28
2022-10-14T00:42:36.865Z,3.60
2022-10-14T00:45:29.964Z,3.75
2022-10-14T00:48:26.754Z,2.42
2022-10-14T00:51:20.899Z,3.15
2022-10-14T00:54:16.322Z,2.92
2022-10-14T00:57:11.881Z,2.42
2022-10-14T01:00:07.957Z,2.42
2022-10-14T01:03:09.599Z,2.42
2022-10-14T01:06:13.182Z,2.35
2022-10-14T01:09:14.676Z,2.53
2022-10-14T01:12:29.485Z,3.00
2022-10-14T01:15:29.251Z,2.67
2022-10-14T01:18:39.417Z,2.28
2022-10-14T01:21:41.616Z,3.25
2022-10-14T01:24:45.967Z,3.25
2022-10-14T01:27:56.987Z,2.88
2022-10-14T01:30:53.770Z,2.53
2022-10-14T01:33:48.988Z,2.33
2022-10-14T01:36:46.798Z,2.72
2022-10-14T01:39:45.875Z,2.92
2022-10-14T01:42:41.195Z,2.40
2022-10-14T01:45:37.464Z,3.40
2022-10-14T01:48:36.882Z,3.05
2022-10-14T01:51:33.309Z,2.45
2022-10-14T01:54:31.487Z,2.97
2022-10-14T01:57:30.062Z,2.47
2022-10-14T02:00:22.795Z,1.88
2022-10-14T02:03:16.182Z,2.83
2022-10-14T02:06:15.208Z,2.50
2022-10-14T02:09:16.908Z,2.42
2022-10-14T02:12:29.955Z,2.95
2022-10-14T02:15:32.568Z,2.25
2022-10-14T02:18:32.109Z,2.50
2022-10-14T02:21:34.039Z,2.08
2022-10-14T02:24:31.598Z,2.35
2022-10-14T02:27:29.335Z,1.75
2022-10-14T02:30:22.554Z,2.50
2022-10-14T02:33:16.049Z,2.45
2022-10-14T02:36:11.080Z,2.90
2022-10-14T02:39:08.661Z,2.10
2022-10-14T02:42:02.293Z,2.17
2022-10-14T02:44:56.885Z,2.53
2022-10-14T02:47:50.002Z,1.63
2022-10-14T02:50:44.136Z,2.03
2022-10-14T02:53:36.750Z,2.00
2022-10-14T02:56:31.788Z,2.00
2022-10-14T02:59:25.153Z,2.35
2022-10-14T03:02:18.114Z,2.55
2022-10-14T03:05:11.438Z,2.00
2022-10-14T03:08:05.149Z,1.98
2022-10-14T03:10:58.287Z,3.03
2022-10-14T03:13:52.225Z,1.65
2022-10-14T03:16:45.040Z,2.78
2022-10-14T03:19:37.580Z,2.58
2022-10-14T03:22:31.425Z,2.08
2022-10-14T03:25:25.977Z,1.73
2022-10-14T03:28:18.967Z,2.53
2022-10-14T03:31:13.368Z,1.70
2022-10-14T03:34:05.800Z,2.30
2022-10-14T03:36:59.095Z,1.73
2022-10-14T03:39:53.119Z,2.83
2022-10-14T03:42:46.053Z,2.55
2022-10-14T03:45:39.100Z,2.38
2022-10-14T03:48:33.265Z,3.75
2022-10-14T03:51:26.456Z,2.30
2022-10-14T03:54:20.493Z,1.73
2022-10-14T03:57:14.064Z,1.90
2022-10-14T04:00:09.201Z,1.70
2022-10-14T04:03:02.407Z,1.52
2022-10-14T04:05:57.571Z,2.22
2022-10-14T04:08:50.841Z,2.72
2022-10-14T04:11:44.332Z,1.50
2022-10-14T04:14:37.138Z,2.25
2022-10-14T04:17:29.740Z,2.05
2022-10-14T04:20:22.862Z,1.95
2022-10-14T04:23:18.047Z,1.67
2022-10-14T04:26:11.210Z,1.45
2022-10-14T04:29:04.353Z,1.58
2022-10-14T04:31:57.088Z,1.52
2022-10-14T04:34:49.895Z,1.65
2022-10-14T04:37:42.794Z,2.17
2022-10-14T04:40:37.388Z,1.80
2022-10-14T04:43:30.218Z,1.88
2022-10-14T04:46:23.322Z,2.05
2022-10-14T04:49:16.470Z,2.05
2022-10-14T04:52:09.148Z,1.88
2022-10-14T04:55:03.273Z,2.08
2022-10-14T04:57:57.834Z,1.70
2022-10-14T05:00:51.006Z,1.35
2022-10-14T05:03:44.126Z,2.60
2022-10-14T05:06:38.082Z,1.23
2022-10-14T05:09:31.286Z,2.08
2022-10-14T05:12:24.721Z,2.05
2022-10-14T05:15:20.808Z,1.58
2022-10-14T05:18:14.197Z,1.33
2022-10-14T05:21:07.624Z,2.00
2022-10-14T05:24:01.130Z,1.55
2022-10-14T05:26:54.044Z,1.92
2022-10-14T05:29:48.727Z,1.17
2022-10-14T05:32:43.196Z,1.85
2022-10-14T05:35:57.453Z,2.13
2022-10-14T05:38:50.905Z,1.30
2022-10-14T05:41:44.067Z,2.08
2022-10-14T05:44:37.673Z,1.50
2022-10-14T05:47:31.114Z,2.15
2022-10-14T05:50:25.777Z,1.48
2022-10-14T05:53:19.409Z,1.83
2022-10-14T05:56:12.642Z,1.55
2022-10-14T05:59:06.011Z,1.75
2022-10-14T06:01:59.212Z,2.22
2022-10-14T06:04:52.137Z,1.90
2022-10-14T06:07:46.450Z,1.83
2022-10-14T06:10:39.299Z,2.10
2022-10-14T06:13:32.341Z,2.03
2022-10-14T06:16:25.232Z,1.95
2022-10-14T06:19:17.937Z,2.22
2022-10-14T06:22:11.011Z,1.73
2022-10-14T06:25:06.265Z,1.42
2022-10-14T06:28:03.950Z,1.83
2022-10-14T06:30:57.148Z,2.15
2022-10-14T06:33:50.095Z,1.83
2022-10-14T06:36:42.926Z,2.05
2022-10-14T06:39:36.106Z,1.33
2022-10-14T06:42:30.574Z,4.53
2022-10-14T06:45:24.289Z,1.80
2022-10-14T06:48:17.449Z,2.17
2022-10-14T06:51:10.411Z,1.95
2022-10-14T06:54:03.530Z,2.42
2022-10-14T06:56:56.374Z,1.55
2022-10-14T06:59:51.683Z,1.45
2022-10-14T07:02:45.197Z,3.63
2022-10-14T07:05:38.456Z,2.00
2022-10-14T07:08:31.210Z,1.40
2022-10-14T07:11:24.009Z,1.95
2022-10-14T07:14:17.333Z,1.20
2022-10-14T07:17:11.489Z,2.70
2022-10-14T07:20:04.769Z,1.98
2022-10-14T07:22:58.511Z,1.20
2022-10-14T07:25:51.344Z,2.53
2022-10-14T07:28:44.129Z,1.45
2022-10-14T07:31:37.825Z,2.72
2022-10-14T07:34:33.697Z,1.88
2022-10-14T07:37:27.232Z,1.70
2022-10-14T07:40:20.759Z,2.03
2022-10-14T07:43:14.373Z,1.73
2022-10-14T07:46:08.427Z,1.80
2022-10-14T07:49:02.969Z,2.50
2022-10-14T07:51:57.515Z,1.45
2022-10-14T07:54:50.661Z,1.50
2022-10-14T07:57:44.440Z,2.30
2022-10-14T08:00:38.640Z,1.23
2022-10-14T08:03:32.205Z,1.73
2022-10-14T08:06:25.904Z,1.60
2022-10-14T08:09:21.278Z,2.22
2022-10-14T08:12:14.403Z,1.83
2022-10-14T08:15:08.269Z,1.67
2022-10-14T08:18:01.400Z,2.85
2022-10-14T08:20:54.646Z,2.20
2022-10-14T08:23:48.859Z,1.92
2022-10-14T08:26:51.181Z,2.63
2022-10-14T08:29:44.153Z,3.17
2022-10-14T08:32:37.166Z,2.58
2022-10-14T08:35:30.919Z,1.13
2022-10-14T08:38:26.114Z,2.13
2022-10-14T08:41:35.630Z,1.45
2022-10-14T08:44:40.690Z,1.98
2022-10-14T08:47:38.449Z,1.92
2022-10-14T08:50:37.282Z,2.45
2022-10-14T08:53:34.283Z,1.77
2022-10-14T08:56:27.476Z,1.60
2022-10-14T08:59:22.188Z,1.40
2022-10-14T09:02:31.869Z,2.30
2022-10-14T09:05:26.951Z,1.25
2022-10-14T09:08:28.085Z,2.80
2022-10-14T09:11:24.081Z,1.67
2022-10-14T09:14:20.789Z,1.60
2022-10-14T09:17:18.269Z,1.98
2022-10-14T09:20:21.609Z,2.08
2022-10-14T09:23:18.003Z,1.95
2022-10-14T09:26:18.553Z,2.00
2022-10-14T09:29:24.606Z,1.88
2022-10-14T09:32:27.601Z,20.48
2022-10-14T09:35:26.264Z,13.07
2022-10-14T09:38:20.464Z,9.45
2022-10-14T09:41:15.927Z,12.00
2022-10-14T09:44:18.627Z,12.10
2022-10-14T09:47:18.803Z,12.93
2022-10-14T09:50:24.189Z,13.88
2022-10-14T09:53:23.388Z,12.93
2022-10-14T09:56:18.960Z,12.93
2022-10-14T09:59:18.138Z,12.93
2022-10-14T10:02:22.689Z,14.93
2022-10-14T10:05:25.297Z,13.25
2022-10-14T10:08:19.876Z,12.07
2022-10-14T10:11:13.942Z,12.75
2022-10-14T10:14:18.834Z,17.70
2022-10-14T10:17:16.669Z,13.57
2022-10-14T10:20:20.090Z,9.90
2022-10-14T10:23:26.524Z,11.82
2022-10-14T10:26:25.941Z,10.23
2022-10-14T10:29:31.040Z,8.82
2022-10-14T10:32:33.155Z,8.50
2022-10-14T10:35:30.645Z,10.65
2022-10-14T10:38:30.998Z,7.65
2022-10-14T10:41:48.293Z,7.97
2022-10-14T10:44:58.107Z,7.05
2022-10-14T10:47:58.825Z,7.20
2022-10-14T10:50:58.686Z,5.70
2022-10-14T10:54:18.388Z,7.38
2022-10-14T10:57:25.069Z,5.47
2022-10-14T11:00:21.191Z,6.63
2022-10-14T11:03:41.610Z,8.70
2022-10-14T11:06:58.819Z,5.50
2022-10-14T11:10:19.366Z,5.35
2022-10-14T11:13:30.819Z,8.90
2022-10-14T11:16:32.326Z,6.10
2022-10-14T11:19:34.425Z,5.82
2022-10-14T11:22:52.038Z,9.30
2022-10-14T11:25:53.636Z,6.07
2022-10-14T11:28:52.432Z,6.20
2022-10-14T11:31:52.196Z,8.10
2022-10-14T11:34:54.252Z,6.10
2022-10-14T11:38:03.561Z,4.78
2022-10-14T11:41:02.321Z,4.90
2022-10-14T11:44:04.809Z,4.45
2022-10-14T11:47:04.500Z,5.40
2022-10-14T11:50:03.159Z,5.00
2022-10-14T11:53:02.517Z,7.00
2022-10-14T11:56:03.726Z,5.97
2022-10-14T11:59:24.613Z,6.32
2022-10-14T12:02:32.736Z,6.05
2022-10-14T12:05:36.213Z,6.30
2022-10-14T12:08:35.703Z,5.60
2022-10-14T12:11:35.565Z,6.38
2022-10-14T12:14:34.787Z,7.05
2022-10-14T12:17:33.144Z,7.60
2022-10-14T12:20:37.230Z,5.22
2022-10-14T12:23:34.930Z,7.07
2022-10-14T12:26:47.675Z,5.38
2022-10-14T12:29:43.838Z,6.38
2022-10-14T12:33:01.054Z,7.38
2022-10-14T12:35:59.501Z,5.10
2022-10-14T12:39:23.727Z,5.70
2022-10-14T12:42:18.353Z,5.30
2022-10-14T12:45:18.001Z,6.47
2022-10-14T12:48:18.762Z,5.80
2022-10-14T12:51:16.967Z,5.95
2022-10-14T12:54:16.950Z,6.40
2022-10-14T12:57:26.568Z,5.18
2022-10-14T13:00:31.390Z,5.93
2022-10-14T13:03:27.692Z,5.22
2022-10-14T13:06:31.087Z,5.07
2022-10-14T13:09:36.261Z,5.40
2022-10-14T13:12:45.708Z,4.75
2022-10-14T13:15:53.704Z,5.78
2022-10-14T13:18:53.774Z,4.30
2022-10-14T13:21:53.889Z,4.35
2022-10-14T13:24:47.662Z,7.07
2022-10-14T13:27:50.156Z,5.55
2022-10-14T13:30:55.608Z,5.15
2022-10-14T13:33:53.097Z,5.78
2022-10-14T13:37:10.780Z,5.07
2022-10-14T13:40:18.807Z,5.38
2022-10-14T13:43:18.337Z,4.15
2022-10-14T13:46:16.892Z,4.43
2022-10-14T13:52:20.247Z,6.32
2022-10-14T13:55:18.152Z,4.05
2022-10-14T13:58:15.507Z,5.25
2022-10-14T14:01:08.936Z,5.00
2022-10-14T14:04:03.186Z,6.70
2022-10-14T14:07:23.253Z,4.47
2022-10-14T14:10:12.092Z,5.20
2022-10-14T14:13:06.216Z,4.80
2022-10-14T14:16:00.801Z,4.93
2022-10-14T14:19:07.930Z,6.68
2022-10-14T14:22:15.006Z,4.38
2022-10-14T14:25:33.348Z,5.80
2022-10-14T14:28:31.830Z,4.10
2022-10-14T14:31:42.480Z,4.40
2022-10-14T14:34:45.893Z,5.43
2022-10-14T14:37:55.214Z,6.18
2022-10-14T14:40:49.655Z,7.20
2022-10-14T14:43:47.307Z,5.00
2022-10-14T14:46:49.105Z,6.63
2022-10-14T14:49:46.045Z,6.40
2022-10-14T14:52:41.017Z,5.65
2022-10-14T14:55:44.650Z,6.10
2022-10-14T14:58:43.647Z,5.82
2022-10-14T15:01:36.761Z,5.00
2022-10-14T15:04:35.380Z,7.50
2022-10-14T15:07:29.644Z,6.38
2022-10-14T15:10:24.669Z,8.05
2022-10-14T15:13:44.460Z,5.65
2022-10-14T15:16:42.040Z,7.18
2022-10-14T15:19:38.795Z,6.68
2022-10-14T15:22:35.807Z,7.40
2022-10-14T15:25:31.334Z,7.53
2022-10-14T15:28:31.534Z,6.35
2022-10-14T15:31:25.283Z,8.52
2022-10-14T15:34:23.130Z,7.68
2022-10-14T15:37:18.475Z,5.75
2022-10-14T15:40:14.129Z,6.47
2022-10-14T15:43:13.955Z,6.55
2022-10-14T15:46:32.520Z,6.50
2022-10-14T15:49:29.056Z,6.35
2022-10-14T15:52:26.193Z,6.47
2022-10-14T15:55:22.418Z,5.80
2022-10-14T15:58:15.998Z,7.75
2022-10-14T16:01:16.967Z,7.40
2022-10-14T16:04:20.575Z,7.28
2022-10-14T16:07:15.601Z,7.43
2022-10-14T16:10:13.086Z,6.85
2022-10-14T16:13:06.866Z,5.57
2022-10-14T16:16:02.347Z,6.47
2022-10-14T16:18:55.832Z,7.30
2022-10-14T16:21:50.102Z,6.30
2022-10-14T16:24:43.482Z,6.07
2022-10-14T16:27:38.148Z,9.23
2022-10-14T16:30:31.970Z,6.53
2022-10-14T16:33:24.756Z,7.88
2022-10-14T16:36:18.342Z,6.22
2022-10-14T16:39:12.749Z,7.35
2022-10-14T16:42:06.153Z,7.22
2022-10-14T16:45:00.734Z,8.40
2022-10-14T16:47:54.573Z,6.60
2022-10-14T16:50:50.909Z,7.20
2022-10-14T16:53:45.076Z,5.90
2022-10-14T16:56:53.651Z,7.07
2022-10-14T16:59:46.997Z,5.13
2022-10-14T17:02:41.177Z,7.55
2022-10-14T17:05:35.222Z,6.40
2022-10-14T17:08:28.683Z,5.72
2022-10-14T17:11:22.153Z,5.85
2022-10-14T17:14:17.953Z,5.18
2022-10-14T17:17:12.557Z,5.03
2022-10-14T17:20:09.122Z,6.18
2022-10-14T17:23:09.420Z,6.20
2022-10-14T17:26:05.164Z,6.40
2022-10-14T17:28:59.928Z,6.15
2022-10-14T17:31:52.284Z,5.45
2022-10-14T17:34:45.783Z,5.43
2022-10-14T17:37:40.454Z,4.90
2022-10-14T17:40:34.030Z,5.18
2022-10-14T17:43:26.788Z,4.95
2022-10-14T17:46:23.298Z,6.13
2022-10-14T17:49:16.471Z,5.35
2022-10-14T17:52:09.504Z,4.55
2022-10-14T17:55:04.222Z,6.47
2022-10-14T17:57:57.599Z,5.43
2022-10-14T18:00:50.748Z,5.95
2022-10-14T18:03:45.899Z,5.13
2022-10-14T18:06:39.295Z,5.93
2022-10-14T18:09:34.776Z,6.05
2022-10-14T18:12:29.262Z,4.82
2022-10-14T18:15:22.548Z,5.03
2022-10-14T18:18:15.783Z,6.00
2022-10-14T18:21:09.095Z,4.18
2022-10-14T18:24:02.233Z,5.13
2022-10-14T18:26:55.607Z,5.75
2022-10-14T18:29:50.162Z,5.75
2022-10-14T18:32:43.594Z,6.30
2022-10-14T18:35:37.181Z,5.25
2022-10-14T18:38:30.795Z,5.07
2022-10-14T18:41:25.021Z,5.13
2022-10-14T18:44:18.207Z,4.78
2022-10-14T18:47:12.916Z,4.72
2022-10-14T18:50:06.814Z,4.30
2022-10-14T18:52:59.559Z,5.65
2022-10-14T18:55:56.734Z,4.57
2022-10-14T18:58:57.175Z,4.50
2022-10-14T19:01:53.434Z,5.13
2022-10-14T19:04:48.202Z,5.18
2022-10-14T19:07:43.666Z,5.05
2022-10-14T19:10:36.680Z,4.45
2022-10-14T19:13:30.022Z,4.68
2022-10-14T19:16:25.095Z,5.97
2022-10-14T19:19:20.272Z,4.85
2022-10-14T19:22:15.619Z,4.55
2022-10-14T19:25:09.404Z,4.90
2022-10-14T19:28:02.707Z,5.35
2022-10-14T19:30:55.945Z,4.72
2022-10-14T19:33:49.248Z,5.05
2022-10-14T19:36:43.896Z,4.28
2022-10-14T19:39:38.294Z,5.85
2022-10-14T19:42:32.133Z,4.32
2022-10-14T19:45:25.169Z,4.90
2022-10-14T19:48:18.817Z,4.78
2022-10-14T19:51:11.775Z,4.75
2022-10-14T19:54:05.001Z,4.20
2022-10-14T19:56:59.229Z,5.18
2022-10-14T19:59:53.371Z,5.97
2022-10-14T20:02:46.803Z,3.97
2022-10-14T20:05:40.038Z,4.47
2022-10-14T20:08:34.112Z,5.22
2022-10-14T20:11:27.131Z,4.30
2022-10-14T20:14:21.251Z,4.10
2022-10-14T20:17:15.022Z,3.67
2022-10-14T20:20:08.906Z,3.22
2022-10-14T20:23:02.222Z,4.70
2022-10-14T20:26:01.095Z,4.55
2022-10-14T20:28:54.368Z,4.47
2022-10-14T20:31:49.129Z,6.07
2022-10-14T20:34:41.791Z,6.32
2022-10-14T20:37:34.891Z,4.47
2022-10-14T20:40:28.028Z,3.92
2022-10-14T20:43:20.986Z,3.53
2022-10-14T20:46:14.485Z,4.47
2022-10-14T20:49:09.125Z,4.75
2022-10-14T20:52:01.983Z,4.82
2022-10-14T20:54:55.295Z,3.80
2022-10-14T20:57:48.583Z,3.50
2022-10-14T21:00:42.247Z,3.78
2022-10-14T21:03:35.702Z,4.30
2022-10-14T21:06:31.199Z,3.70
2022-10-14T21:09:23.941Z,3.92
2022-10-14T21:12:17.319Z,3.13
2022-10-14T21:15:12.310Z,4.38
2022-10-14T21:18:06.980Z,3.28
2022-10-14T21:21:02.031Z,4.38
2022-10-14T21:23:56.185Z,4.20
2022-10-14T21:26:50.489Z,4.78
2022-10-14T21:29:43.769Z,3.72
2022-10-14T21:32:36.628Z,2.67
2022-10-14T21:35:30.454Z,4.40
2022-10-14T21:38:23.908Z,3.78
2022-10-14T21:41:18.476Z,3.55
2022-10-14T21:44:15.749Z,3.58
2022-10-14T21:47:09.032Z,4.45
2022-10-14T21:50:01.932Z,3.95
2022-10-14T21:52:54.831Z,2.97
2022-10-14T21:55:53.013Z,2.55
2022-10-14T21:58:47.072Z,4.53
2022-10-14T22:01:40.101Z,3.60
2022-10-14T22:04:34.615Z,2.78
2022-10-14T22:07:31.977Z,2.85
2022-10-14T22:10:43.604Z,4.10
2022-10-14T22:13:37.039Z,3.45
2022-10-14T22:16:31.563Z,2.75
2022-10-14T22:19:25.144Z,4.60
2022-10-14T22:22:17.510Z,3.42
2022-10-14T22:25:11.066Z,4.13
2022-10-14T22:28:04.296Z,3.95
2022-10-14T22:30:58.684Z,3.75
2022-10-14T22:33:53.392Z,3.10
2022-10-14T22:36:46.993Z,3.47
2022-10-14T22:39:40.023Z,4.25
2022-10-14T22:42:32.984Z,3.08
2022-10-14T22:45:26.040Z,2.78
2022-10-14T22:48:18.839Z,3.15
2022-10-14T22:51:14.599Z,4.07
2022-10-14T22:54:08.226Z,2.85
2022-10-14T22:57:01.223Z,3.10
2022-10-14T22:59:54.179Z,2.97
2022-10-14T23:02:47.245Z,3.05
2022-10-14T23:05:40.171Z,2.60
2022-10-14T23:08:34.996Z,2.67
2022-10-14T23:11:29.051Z,3.97
2022-10-14T23:14:21.756Z,3.97
2022-10-14T23:17:14.892Z,2.72
2022-10-14T23:20:09.647Z,2.28
2022-10-14T23:23:03.069Z,3.35
2022-10-14T23:25:57.013Z,2.85
2022-10-14T23:28:51.056Z,2.70
2022-10-14T23:31:43.980Z,2.58
2022-10-14T23:34:36.847Z,2.35
2022-10-14T23:37:30.786Z,2.38
2022-10-14T23:40:24.351Z,2.65
2022-10-14T23:43:19.721Z,2.42
2022-10-14T23:46:13.040Z,2.75
2022-10-14T23:49:21.523Z,3.35
2022-10-14T23:52:19.087Z,2.80
2022-10-14T23:55:12.277Z,2.40
2022-10-14T23:58:05.489Z,4.03
